Warwick, Pennsylvania
Current Conditions -  °F | °C
As of 8:54 PM on Wednesday 17 Dec 2014 (Local Time) from KDYL Reporting Station
Broken Clouds Broken Clouds  
Wind Chill: 31°   Ceiling: 4600
Heat Index: 38°   Visibility: 10mi
Dew Point: 27°   Wind: 9mph
Humidity: 65%   Direction: 270°W
Pressure: 29.94"   Gusts: NA
Location:  40.2185°N, 75.0735°W
Report Text: KDYL 180154Z AUTO 27008KT 10SM BKN046 03/M03 A2994 RMK AO2 SLP143 T00331028
Loading
Personal Weather Stations






























Interactive Weather Map New forecast layout! Learn more

10-Day Weather Forecast

Advertisements
Track Severe Weather on mobile